createdAt,value
2018-11-22T00:00:03.383Z,6.73
2018-11-22T00:02:52.602Z,7.37
2018-11-22T00:05:33.044Z,6.20
2018-11-22T00:08:13.963Z,5.70
2018-11-22T00:10:54.676Z,7.00
2018-11-22T00:13:35.177Z,5.93
2018-11-22T00:16:15.494Z,7.43
2018-11-22T00:18:55.850Z,6.73
2018-11-22T00:24:38.039Z,5.67
2018-11-22T00:27:16.948Z,6.57
2018-11-22T00:30:05.364Z,6.10
2018-11-22T00:32:45.975Z,6.47
2018-11-22T00:35:26.943Z,6.63
2018-11-22T00:38:05.881Z,6.97
2018-11-22T00:40:46.492Z,6.47
2018-11-22T00:43:27.308Z,5.93
2018-11-22T00:46:08.189Z,6.47
2018-11-22T00:48:49.072Z,6.57
2018-11-22T00:51:29.832Z,7.10
2018-11-22T00:54:10.557Z,5.83
2018-11-22T00:56:51.131Z,6.17
2018-11-22T00:59:31.525Z,5.93
2018-11-22T01:02:12.251Z,6.93
2018-11-22T01:04:52.628Z,6.37
2018-11-22T01:07:32.972Z,6.20
2018-11-22T01:10:21.625Z,6.57
2018-11-22T01:13:02.171Z,6.23
2018-11-22T01:15:42.657Z,6.77
2018-11-22T01:18:21.548Z,6.17
2018-11-22T01:21:02.096Z,5.40
2018-11-22T01:23:42.828Z,5.93
2018-11-22T01:26:23.219Z,6.03
2018-11-22T01:29:04.164Z,6.63
2018-11-22T01:31:43.027Z,6.87
2018-11-22T01:34:30.832Z,5.60
2018-11-22T01:37:11.286Z,5.93
2018-11-22T01:39:51.878Z,4.87
2018-11-22T01:42:32.191Z,5.03
2018-11-22T01:45:14.084Z,6.40
2018-11-22T01:47:55.269Z,6.07
2018-11-22T01:50:35.871Z,6.13
2018-11-22T01:53:17.006Z,5.80
2018-11-22T01:55:58.157Z,5.83
2018-11-22T01:58:38.412Z,5.93
2018-11-22T02:01:19.540Z,5.27
2018-11-22T02:04:00.397Z,5.67
2018-11-22T02:06:40.686Z,5.77
2018-11-22T02:09:21.050Z,6.07
2018-11-22T02:12:01.672Z,5.60
2018-11-22T02:14:42.728Z,5.53
2018-11-22T02:17:23.496Z,5.10
2018-11-22T02:20:03.876Z,6.70
2018-11-22T02:22:44.849Z,5.43
2018-11-22T02:25:27.164Z,7.17
2018-11-22T02:28:08.361Z,5.77
2018-11-22T02:30:48.840Z,4.87
2018-11-22T02:33:29.573Z,5.03
2018-11-22T02:36:09.960Z,5.77
2018-11-22T02:38:50.607Z,5.50
2018-11-22T02:41:29.413Z,6.03
2018-11-22T02:44:17.209Z,5.70
2018-11-22T02:46:58.080Z,6.67
2018-11-22T02:49:38.366Z,5.97
2018-11-22T02:52:18.978Z,5.40
2018-11-22T02:54:59.376Z,5.63
2018-11-22T02:57:38.772Z,5.70
2018-11-22T03:00:46.587Z,5.60
2018-11-22T03:03:27.110Z,5.63
2018-11-22T03:06:06.026Z,5.63
2018-11-22T03:08:53.821Z,4.90
2018-11-22T03:11:34.532Z,7.67
2018-11-22T03:14:15.642Z,5.40
2018-11-22T03:16:56.764Z,6.17
2018-11-22T03:19:37.329Z,5.13
2018-11-22T03:22:18.415Z,5.33
2018-11-22T03:24:59.440Z,5.70
2018-11-22T03:27:41.185Z,5.80
2018-11-22T03:30:22.597Z,5.30
2018-11-22T03:33:03.708Z,5.67
2018-11-22T03:35:44.896Z,5.10
2018-11-22T03:38:23.724Z,6.17
2018-11-22T03:41:11.521Z,5.10
2018-11-22T03:43:52.173Z,5.50
2018-11-22T03:46:32.888Z,5.60
2018-11-22T03:49:13.231Z,5.43
2018-11-22T03:51:54.024Z,5.53
2018-11-22T03:54:35.163Z,5.43
2018-11-22T03:57:15.800Z,6.17
2018-11-22T03:59:56.863Z,5.47
2018-11-22T04:02:35.688Z,4.67
2018-11-22T04:05:24.611Z,5.27
2018-11-22T04:11:03.819Z,5.83
2018-11-22T04:13:44.145Z,5.47
2018-11-22T04:16:24.437Z,6.23
2018-11-22T04:19:05.269Z,5.87
2018-11-22T04:21:46.036Z,5.47
2018-11-22T04:24:26.629Z,5.50
2018-11-22T04:27:07.045Z,4.60
2018-11-22T04:29:47.850Z,4.87
2018-11-22T04:32:28.760Z,5.27
2018-11-22T04:35:10.526Z,5.10
2018-11-22T04:37:51.252Z,4.80
2018-11-22T04:40:31.332Z,5.50
2018-11-22T04:43:19.140Z,5.30
2018-11-22T04:46:00.177Z,5.53
2018-11-22T04:48:41.156Z,5.37
2018-11-22T04:51:22.176Z,4.73
2018-11-22T04:54:02.940Z,6.00
2018-11-22T04:56:43.792Z,6.00
2018-11-22T04:59:24.737Z,4.27
2018-11-22T05:02:04.965Z,4.87
2018-11-22T05:04:43.771Z,4.83
2018-11-22T05:07:31.568Z,5.20
2018-11-22T05:16:10.174Z,5.27
2018-11-22T05:18:50.430Z,4.50
2018-11-22T05:21:30.734Z,5.43
2018-11-22T05:24:11.848Z,5.07
2018-11-22T05:26:52.458Z,4.43
2018-11-22T05:29:32.782Z,5.13
2018-11-22T05:32:13.943Z,4.73
2018-11-22T05:34:53.161Z,6.70
2018-11-22T05:37:40.953Z,5.60
2018-11-22T05:40:22.699Z,5.90
2018-11-22T05:43:03.105Z,5.10
2018-11-22T05:45:43.549Z,5.93
2018-11-22T05:48:24.401Z,4.97
2018-11-22T05:51:04.719Z,5.53
2018-11-22T05:53:43.595Z,5.60
2018-11-22T05:56:31.387Z,5.77
2018-11-22T05:59:12.180Z,5.60
2018-11-22T06:01:52.824Z,6.17
2018-11-22T06:04:33.368Z,5.50
2018-11-22T06:07:13.689Z,6.47
2018-11-22T06:09:54.089Z,5.93
2018-11-22T06:12:35.224Z,5.20
2018-11-22T06:15:15.808Z,5.87
2018-11-22T12:17:45.728Z,9.60
2018-11-22T12:20:15.268Z,8.00
2018-11-22T12:22:45.288Z,10.77
2018-11-22T12:25:15.093Z,8.00
2018-11-22T12:27:44.701Z,8.70
2018-11-22T12:30:19.472Z,9.80
2018-11-22T12:32:52.173Z,9.43
2018-11-22T12:35:24.866Z,8.23
2018-11-22T12:37:59.185Z,9.23
2018-11-22T12:40:27.686Z,9.67
2018-11-22T12:42:56.169Z,9.57
2018-11-22T12:45:25.172Z,8.97
2018-11-22T12:47:53.660Z,10.20
2018-11-22T12:50:22.169Z,9.73
2018-11-22T12:52:50.652Z,8.40
2018-11-22T12:55:19.123Z,9.50
2018-11-22T12:57:47.604Z,11.33
2018-11-22T13:00:17.277Z,10.47
2018-11-22T13:02:46.284Z,10.77
2018-11-22T13:05:16.181Z,10.00
2018-11-22T13:07:44.768Z,10.07
2018-11-22T13:10:14.375Z,10.40
2018-11-22T13:12:44.092Z,11.80
2018-11-22T13:15:14.393Z,10.47
2018-11-22T13:17:43.303Z,10.80
2018-11-22T13:20:13.208Z,11.00
2018-11-22T13:22:41.696Z,11.07
2018-11-22T13:25:13.527Z,10.33
2018-11-22T13:27:42.588Z,10.37
2018-11-22T13:30:16.556Z,10.60
2018-11-22T13:32:46.169Z,11.67
2018-11-22T13:35:15.774Z,10.10
2018-11-22T13:37:45.687Z,10.70
2018-11-22T13:40:14.176Z,10.17
2018-11-22T13:42:43.664Z,10.67
2018-11-22T13:45:14.265Z,9.37
2018-11-22T13:47:44.100Z,10.90
2018-11-22T13:50:15.284Z,10.90
2018-11-22T13:52:44.853Z,10.07
2018-11-22T13:55:13.788Z,11.03
2018-11-22T13:57:42.633Z,10.93
2018-11-22T14:00:17.059Z,11.70
2018-11-22T14:02:46.464Z,11.97
2018-11-22T14:05:14.949Z,10.13
2018-11-22T14:07:43.466Z,11.40
2018-11-22T14:10:14.577Z,9.90
2018-11-22T14:12:43.415Z,9.27
2018-11-22T14:15:14.196Z,9.80
2018-11-22T14:17:43.388Z,12.67
2018-11-22T14:20:14.223Z,11.33
2018-11-22T14:22:42.734Z,11.33
2018-11-22T14:25:12.421Z,11.30
2018-11-22T14:27:41.614Z,10.83
2018-11-22T14:30:12.656Z,11.43
2018-11-22T14:32:42.262Z,13.20
2018-11-22T14:35:12.164Z,11.97
2018-11-22T14:37:41.161Z,10.27
2018-11-22T14:40:13.236Z,10.83
2018-11-22T14:42:42.232Z,11.00
2018-11-22T14:45:12.324Z,11.50
2018-11-22T14:47:41.754Z,11.40
2018-11-22T14:50:19.936Z,9.23
2018-11-22T14:52:50.748Z,10.87
2018-11-22T14:55:19.233Z,10.23
2018-11-22T14:57:47.712Z,10.40
2018-11-22T15:00:16.641Z,10.50
2018-11-22T15:02:46.752Z,10.80
2018-11-22T15:05:16.061Z,9.80
2018-11-22T15:07:44.949Z,10.73
2018-11-22T15:10:14.656Z,10.37
2018-11-22T15:12:44.364Z,9.40
2018-11-22T15:15:15.612Z,11.10
2018-11-22T15:17:44.089Z,9.70
2018-11-22T15:20:14.367Z,10.83
2018-11-22T15:22:43.760Z,9.77
2018-11-22T15:25:13.829Z,10.77
2018-11-22T15:27:43.129Z,9.80
2018-11-22T15:30:13.663Z,8.83
2018-11-22T15:32:42.140Z,8.77
2018-11-22T15:35:14.556Z,10.60
2018-11-22T15:37:43.700Z,9.60
2018-11-22T15:40:14.105Z,10.60
2018-11-22T15:42:42.846Z,9.60
2018-11-22T15:45:13.464Z,10.33
2018-11-22T15:47:41.983Z,9.50
2018-11-22T15:50:12.668Z,10.23
2018-11-22T15:52:41.961Z,9.23
2018-11-22T15:55:11.261Z,9.03
2018-11-22T15:57:40.260Z,10.97
2018-11-22T16:00:12.321Z,8.53
2018-11-22T16:02:40.801Z,9.87
2018-11-22T16:05:10.772Z,10.60
2018-11-22T16:07:39.811Z,10.27
2018-11-22T16:10:11.792Z,9.93
2018-11-22T16:12:40.284Z,8.47
2018-11-22T16:15:13.529Z,8.67
2018-11-22T16:17:42.716Z,10.57
2018-11-22T16:20:11.327Z,8.50
2018-11-22T16:22:40.604Z,9.73
2018-11-22T16:25:10.840Z,8.60
2018-11-22T16:27:39.435Z,8.40
2018-11-22T16:30:11.139Z,9.03
2018-11-22T16:32:39.305Z,8.33
2018-11-22T16:35:09.886Z,8.97
2018-11-22T16:37:38.369Z,8.70
2018-11-22T16:40:09.096Z,8.30
2018-11-22T16:42:37.888Z,8.30
2018-11-22T16:45:13.112Z,9.03
2018-11-22T16:47:41.652Z,9.30
2018-11-22T16:50:10.908Z,9.53
2018-11-22T16:52:39.389Z,8.30
2018-11-22T16:55:08.301Z,8.37
2018-11-22T16:57:36.831Z,8.53
2018-11-22T17:00:10.200Z,8.20
2018-11-22T17:02:38.684Z,8.63
2018-11-22T17:05:07.197Z,9.23
2018-11-22T17:07:35.696Z,9.07
2018-11-22T17:10:04.576Z,9.57
2018-11-22T17:12:33.084Z,9.13
2018-11-22T17:15:01.571Z,7.80
2018-11-22T17:17:30.062Z,9.07
2018-11-22T17:19:58.543Z,7.27
2018-11-22T17:22:27.196Z,8.27
2018-11-22T17:24:55.676Z,8.37
2018-11-22T17:27:24.153Z,7.43
2018-11-22T17:29:52.669Z,9.27
2018-11-22T17:32:21.150Z,9.73
2018-11-22T17:34:50.701Z,8.57
2018-11-22T17:37:18.188Z,7.53
2018-11-22T17:39:46.980Z,9.90
2018-11-22T17:42:15.472Z,8.03
2018-11-22T17:44:44.133Z,8.73
2018-11-22T17:47:12.613Z,8.10
2018-11-22T17:49:41.097Z,9.23
2018-11-22T17:52:09.588Z,7.40
2018-11-22T17:54:38.073Z,8.70
2018-11-22T17:57:06.996Z,9.03
2018-11-22T17:59:35.648Z,7.93
2018-11-22T18:02:04.636Z,8.00
2018-11-22T18:04:33.119Z,8.73
2018-11-22T18:07:02.000Z,8.13
2018-11-22T18:09:30.494Z,8.03
2018-11-22T18:11:58.976Z,9.07
2018-11-22T18:14:27.492Z,8.90
2018-11-22T18:16:55.976Z,9.93
2018-11-22T18:19:24.472Z,9.20
2018-11-22T18:21:54.511Z,7.87
2018-11-22T18:24:22.321Z,8.60
2018-11-22T18:26:50.803Z,7.07
2018-11-22T18:29:19.284Z,7.50
2018-11-22T18:31:47.772Z,7.83
2018-11-22T18:34:16.261Z,7.73
2018-11-22T18:36:44.765Z,9.30
2018-11-22T18:39:13.249Z,8.47
2018-11-22T18:41:41.740Z,8.63
2018-11-22T18:44:10.221Z,6.93
2018-11-22T18:46:38.703Z,8.67
2018-11-22T18:49:07.234Z,8.20
2018-11-22T18:51:35.705Z,6.93
2018-11-22T18:54:04.222Z,9.70
2018-11-22T18:56:36.991Z,9.33
2018-11-22T18:59:01.227Z,7.83
2018-11-22T19:01:29.699Z,9.87
2018-11-22T19:03:58.176Z,8.40
2018-11-22T19:06:26.969Z,9.17
2018-11-22T19:08:55.712Z,9.83
2018-11-22T19:11:24.192Z,9.27
2018-11-22T19:13:52.696Z,8.10
2018-11-22T19:16:21.176Z,8.13
2018-11-22T19:18:49.668Z,8.83
2018-11-22T19:21:18.147Z,7.70
2018-11-22T19:23:46.623Z,8.47
2018-11-22T19:26:15.104Z,7.60
2018-11-22T19:28:43.596Z,8.10
2018-11-22T19:31:12.092Z,8.63
2018-11-22T19:33:40.769Z,8.20
2018-11-22T19:36:09.263Z,7.73
2018-11-22T19:38:37.749Z,7.87
2018-11-22T19:41:06.501Z,9.13
2018-11-22T19:43:34.985Z,8.20
2018-11-22T19:46:03.473Z,8.63
2018-11-22T19:48:32.777Z,7.53
2018-11-22T19:51:05.572Z,10.47
2018-11-22T19:53:28.987Z,8.90
2018-11-22T19:55:57.460Z,8.13
2018-11-22T19:58:25.944Z,9.17
2018-11-22T20:00:54.425Z,9.30
2018-11-22T20:03:22.908Z,10.30
2018-11-22T20:05:51.383Z,9.07
2018-11-22T20:08:20.313Z,7.90
2018-11-22T20:10:49.296Z,8.87
2018-11-22T20:13:17.776Z,9.20
2018-11-22T20:15:46.253Z,8.60
2018-11-22T20:18:14.736Z,9.03
2018-11-22T20:20:49.601Z,9.23
2018-11-22T20:23:11.733Z,8.67
2018-11-22T20:25:40.227Z,8.73
2018-11-22T20:28:08.720Z,8.90
2018-11-22T20:30:38.883Z,9.33
2018-11-22T20:33:07.367Z,8.10
2018-11-22T20:35:35.852Z,10.73
2018-11-22T20:38:04.351Z,10.13
2018-11-22T20:40:32.834Z,8.60
2018-11-22T20:43:01.889Z,9.37
2018-11-22T20:45:31.387Z,9.63
2018-11-22T20:48:01.321Z,8.83
2018-11-22T20:50:30.608Z,9.30
2018-11-22T20:52:59.096Z,8.20
2018-11-22T20:55:29.210Z,8.10
2018-11-22T20:57:59.429Z,9.03
2018-11-22T21:00:29.343Z,8.57
2018-11-22T21:02:58.134Z,8.93
2018-11-22T21:05:27.236Z,7.97
2018-11-22T21:07:56.224Z,8.10
2018-11-22T21:10:26.236Z,9.90
2018-11-22T21:12:54.719Z,8.67
2018-11-22T21:15:25.465Z,9.03
2018-11-22T21:17:55.887Z,9.53
2018-11-22T21:20:26.212Z,8.10
2018-11-22T21:22:54.718Z,6.80
2018-11-22T21:25:23.557Z,9.00
2018-11-22T21:27:52.261Z,9.43
2018-11-22T21:30:23.896Z,9.13
2018-11-22T21:32:52.727Z,8.63
2018-11-22T21:35:21.693Z,8.73
2018-11-22T21:37:51.096Z,8.57
2018-11-22T21:40:20.266Z,8.20
2018-11-22T21:42:48.816Z,7.93
2018-11-22T21:45:18.889Z,8.40
2018-11-22T21:47:47.472Z,8.30
2018-11-22T21:50:17.231Z,9.63
2018-11-22T21:52:45.879Z,8.77
2018-11-22T21:55:22.173Z,7.60
2018-11-22T21:57:51.745Z,6.93
2018-11-22T22:00:26.358Z,7.47
2018-11-22T22:02:57.580Z,9.03
2018-11-22T22:05:26.332Z,8.00
2018-11-22T22:07:54.872Z,8.13
2018-11-22T22:10:23.360Z,8.00
2018-11-22T22:12:51.851Z,8.60
2018-11-22T22:15:22.138Z,7.47
2018-11-22T22:17:50.661Z,7.47
2018-11-22T22:20:22.609Z,8.33
2018-11-22T22:22:51.304Z,7.57
2018-11-22T22:25:21.171Z,7.97
2018-11-22T22:27:50.500Z,7.57
2018-11-22T22:30:20.321Z,8.00
2018-11-22T22:32:49.829Z,7.67
2018-11-22T22:35:18.316Z,7.90
2018-11-22T22:37:46.806Z,8.63
2018-11-22T22:40:19.512Z,7.40
2018-11-22T22:42:49.077Z,7.20
2018-11-22T22:45:18.667Z,7.63
2018-11-22T22:47:47.849Z,8.07
2018-11-22T22:50:18.806Z,8.47
2018-11-22T22:52:48.231Z,7.53
2018-11-22T22:55:17.019Z,8.20
2018-11-22T22:57:45.684Z,9.10
2018-11-22T23:00:23.242Z,9.37
2018-11-22T23:02:54.219Z,7.20
2018-11-22T23:05:23.515Z,8.03
2018-11-22T23:07:52.531Z,6.73
2018-11-22T23:10:21.809Z,7.20
2018-11-22T23:12:50.287Z,7.03
2018-11-22T23:15:19.493Z,7.17
2018-11-22T23:17:48.073Z,6.13
2018-11-22T23:20:18.908Z,6.90
2018-11-22T23:22:48.004Z,6.47
2018-11-22T23:25:17.712Z,7.93
2018-11-22T23:27:46.202Z,7.67
2018-11-22T23:30:18.536Z,7.67
2018-11-22T23:32:48.460Z,7.13
2018-11-22T23:35:17.265Z,8.07
2018-11-22T23:37:45.949Z,6.30
2018-11-22T23:40:15.860Z,7.33
2018-11-22T23:42:44.549Z,6.73
2018-11-22T23:45:14.252Z,7.23
2018-11-22T23:47:43.155Z,6.80
2018-11-22T23:50:17.879Z,7.13
2018-11-22T23:52:47.496Z,6.10
2018-11-22T23:55:16.269Z,7.53
2018-11-22T23:57:44.958Z,7.27
